Date,TemperatureHighF,TemperatureAvgF,TemperatureLowF,DewpointHighF,DewpointAvgF,DewpointLowF,HumidityHigh,HumidityAvg,HumidityLow,PressureMaxIn,PressureMinIn,WindSpeedMaxMPH,WindSpeedAvgMPH,GustSpeedMaxMPH,PrecipitationSumIn
2013-3-1,40.5,37.6,33.8,35.0,31.0,28.2,96,78,65,29.62,29.47,8,0,0,0.02
2013-3-2,44.4,37.6,32.0,30.8,28.0,25.6,80,68,55,29.61,29.55,7,0,0,0.00
2013-3-3,42.6,35.9,32.6,32.3,28.7,25.1,92,75,62,29.58,29.49,9,0,0,0.00
2013-3-4,39.7,34.3,29.7,29.0,24.8,21.3,84,68,52,29.67,29.51,17,2,0,0.01
2013-3-5,43.4,35.9,31.2,34.5,28.0,22.9,92,73,57,30.01,29.67,10,1,0,0.01
2013-3-6,39.4,37.1,34.9,35.7,33.4,30.0,93,86,71,30.05,29.97,24,5,0,0.00
2013-3-7,36.4,32.0,30.1,31.5,30.3,29.1,97,94,78,29.99,29.91,26,3,0,0.00
2013-3-8,39.7,32.2,28.9,31.0,28.2,23.5,98,86,57,30.08,29.87,12,1,0,0.00
2013-3-9,39.1,34.7,26.5,31.3,27.1,22.3,95,74,59,30.29,30.07,12,2,0,0.00
2013-3-10,39.9,31.0,23.3,32.2,27.7,21.8,95,88,72,30.35,30.26,9,1,0,0.10
2013-3-11,42.0,37.3,34.0,39.6,34.9,31.4,93,91,89,30.27,30.09,5,0,0,0.01
2013-3-12,54.2,45.8,39.0,52.8,44.5,37.3,97,95,93,30.11,29.67,13,2,0,0.01
2013-3-13,51.4,43.9,34.2,50.2,38.8,21.9,97,83,54,29.72,29.66,9,0,0,0.00
2013-3-14,35.9,30.9,23.1,24.7,15.6,6.1,68,53,41,29.78,29.66,16,2,0,0.00
2013-3-15,38.6,30.5,20.2,26.9,15.8,6.2,74,55,30,29.81,29.58,16,2,0,0.16
2013-3-16,40.5,34.3,27.9,27.0,15.1,7.3,75,47,27,29.81,29.61,10,1,0,0.13
2013-3-17,39.2,33.5,25.5,21.2,11.8,4.5,70,43,25,30.07,29.81,12,1,0,0.05
2013-3-18,30.6,28.7,28.3,26.4,25.4,22.6,92,88,72,30.22,30.19,9,1,0,0.10
2013-3-19,31.8,29.2,28.2,30.8,27.7,26.3,96,94,92,30.19,29.61,9,1,0,0.03
2013-3-20,28.3,26.3,24.1,26.4,24.1,22.1,94,91,90,29.67,29.63,7,0,0,0.00
2013-3-21,30.5,30.3,30.1,28.8,28.6,28.2,94,93,93,29.57,29.55,3,0,0,0.09
2013-3-22,30.2,29.8,29.7,28.4,25.7,20.9,93,85,70,29.56,29.55,6,0,0,0.00
2013-3-23,43.3,41.0,37.4,21.4,19.7,17.3,50,42,37,29.62,29.57,17,4,0,0.03
2013-3-27,43.9,42.8,41.9,31.4,30.2,29.0,66,61,56,29.80,29.79,8,2,0,0.02
2013-3-28,47.4,42.3,37.5,34.9,32.6,29.8,90,69,52,29.95,29.80,11,1,0,0.00
2013-3-29,55.2,45.2,34.6,36.3,32.8,27.9,85,64,38,29.96,29.90,11,0,0,0.00
2013-3-30,58.1,47.4,36.5,28.6,23.1,14.5,69,42,20,30.04,29.94,5,0,0,0.00
2013-3-31,58.6,44.7,28.4,26.9,24.5,20.9,84,51,24,30.07,29.95,15,1,0,0.02